Time;durP1;ratioP1;P1;durP2;ratioP2;P2;SDS_P1;SDS_P2;PMS_P1;PMS_P2;Temp;Humidity;BMP_temperature;BMP_pressure;BME280_temperature;BME280_humidity;BME280_pressure;Samples;Min_cycle;Max_cycle;Signal;HPM_P1;HPM_P2
2023/04/23 00:01:48;;;;;;;43.97;34.40;;;;;;;10.14;85.91;100507.28;3593416;39;20379;-69
2023/04/23 00:04:18;;;;;;;43.90;33.53;;;;;;;10.08;86.33;100496.94;3596288;39;20051;-69
2023/04/23 00:06:46;;;;;;;43.88;33.33;;;;;;;10.10;86.75;100495.00;3592674;39;20055;-68
2023/04/23 00:09:15;;;;;;;44.42;33.45;;;;;;;10.10;86.23;100495.00;3593149;39;20504;-69
2023/04/23 00:11:41;;;;;;;41.80;32.33;;;;;;;9.44;85.92;100383.84;3586768;39;20056;-69
2023/04/23 00:14:07;;;;;;;39.40;31.42;;;;;;;10.09;86.28;100497.81;3593873;39;20066;-68
2023/04/23 00:16:33;;;;;;;43.75;32.50;;;;;;;10.09;86.33;100495.13;3595711;39;20060;-68
2023/04/23 00:18:59;;;;;;;40.08;31.25;;;;;;;10.08;86.31;100498.75;3588875;39;20058;-69
2023/04/23 00:21:26;;;;;;;41.30;31.27;;;;;;;10.07;86.15;100489.84;3591409;39;20047;-69
2023/04/23 00:23:52;;;;;;;40.25;31.30;;;;;;;10.05;85.54;100486.38;3593989;39;20382;-69
2023/04/23 00:26:17;;;;;;;38.85;30.73;;;;;;;10.05;86.33;100496.28;3595397;39;20066;-69
2023/04/23 00:28:43;;;;;;;38.83;30.10;;;;;;;10.05;86.30;100501.63;3593356;39;20067;-69
2023/04/23 00:31:09;;;;;;;38.80;31.42;;;;;;;10.03;85.48;100495.53;3582469;39;20035;-69
2023/04/23 00:33:35;;;;;;;40.28;29.65;;;;;;;10.01;86.56;100492.94;3593342;39;20059;-68
2023/04/23 00:36:01;;;;;;;41.92;29.92;;;;;;;9.95;85.58;100480.75;3594958;39;20047;-69
2023/04/23 00:38:27;;;;;;;38.60;29.10;;;;;;;9.95;85.96;100490.63;3595067;39;20070;-69
2023/04/23 00:40:52;;;;;;;36.58;29.23;;;;;;;9.92;86.69;100491.69;3593976;39;20059;-69
2023/04/23 00:43:19;;;;;;;37.50;29.25;;;;;;;9.92;86.46;100486.31;3594291;39;20067;-68
2023/04/23 00:45:46;;;;;;;36.95;28.58;;;;;;;9.91;86.17;100483.75;3594218;39;20247;-68
2023/04/23 00:48:12;;;;;;;35.33;28.83;;;;;;;9.80;86.69;100449.56;3595158;39;20377;-68
2023/04/23 00:50:38;;;;;;;33.38;28.17;;;;;;;9.92;86.61;100470.22;3598303;39;20776;-68
2023/04/23 00:53:04;;;;;;;35.28;28.30;;;;;;;9.95;86.82;100470.00;3597230;39;20050;-68
2023/04/23 00:55:31;;;;;;;36.20;28.58;;;;;;;9.96;86.42;100469.06;3594085;39;20065;-67
2023/04/23 00:57:57;;;;;;;35.42;28.33;;;;;;;10.01;86.91;100466.06;3586573;39;20149;-68
2023/04/23 01:00:23;;;;;;;35.55;29.08;;;;;;;9.35;86.41;100346.88;3595818;39;20434;-67
2023/04/23 01:02:51;;;;;;;33.58;28.35;;;;;;;10.04;86.32;100452.44;3596252;39;20281;-68
2023/04/23 01:05:18;;;;;;;36.67;28.73;;;;;;;10.08;86.29;100455.78;3595671;39;20063;-68
2023/04/23 01:07:46;;;;;;;34.50;28.15;;;;;;;10.09;86.74;100454.84;3589692;39;20051;-68
2023/04/23 01:10:13;;;;;;;35.55;29.13;;;;;;;10.13;86.33;100448.31;3594813;39;20059;-68
2023/04/23 01:12:39;;;;;;;33.03;26.85;;;;;;;10.16;86.21;100445.41;3596149;39;20056;-69
2023/04/23 01:15:07;;;;;;;35.38;27.65;;;;;;;10.17;85.52;100447.13;3596059;39;20082;-69
2023/04/23 01:17:33;;;;;;;34.42;28.05;;;;;;;10.18;85.43;100449.72;3594224;39;20043;-68
2023/04/23 01:19:59;;;;;;;34.13;28.45;;;;;;;10.19;85.63;100447.91;3590369;39;20055;-68
2023/04/23 01:22:25;;;;;;;35.05;28.70;;;;;;;10.18;85.35;100444.34;3592746;39;20079;-68
2023/04/23 01:24:51;;;;;;;36.83;28.35;;;;;;;10.19;86.03;100437.16;3598193;39;20051;-68
2023/04/23 01:27:18;;;;;;;33.78;28.40;;;;;;;9.69;85.88;100358.97;3593980;39;20075;-68
2023/04/23 01:29:46;;;;;;;33.33;27.08;;;;;;;10.20;86.00;100441.56;3592484;39;20050;-68
2023/04/23 01:32:12;;;;;;;33.47;27.75;;;;;;;10.20;86.23;100441.56;3592416;39;20385;-67
2023/04/23 01:34:40;;;;;;;32.25;27.20;;;;;;;10.21;85.88;100438.78;3594591;39;20079;-69
2023/04/23 01:37:07;;;;;;;31.95;26.30;;;;;;;10.23;86.33;100435.97;3593365;39;20063;-67
2023/04/23 01:39:33;;;;;;;33.08;26.35;;;;;;;10.23;86.22;100441.34;3595530;39;20051;-68
2023/04/23 01:42:00;;;;;;;32.15;26.88;;;;;;;10.25;85.71;100439.44;3596051;39;20321;-68
2023/04/23 01:44:25;;;;;;;32.95;25.15;;;;;;;9.80;85.88;100357.41;3585511;39;20048;-68
2023/04/23 01:46:52;;;;;;;32.72;26.13;;;;;;;10.26;85.84;100433.13;3593501;39;20063;-68
2023/04/23 01:49:18;;;;;;;30.17;25.15;;;;;;;10.28;85.70;100431.22;3593698;39;20374;-68
2023/04/23 01:51:44;;;;;;;30.92;26.52;;;;;;;10.30;86.42;100431.94;3585656;39;20058;-68
2023/04/23 01:54:09;;;;;;;30.63;25.42;;;;;;;9.64;85.89;100325.34;3592371;39;20400;-68
2023/04/23 01:56:35;;;;;;;28.90;23.98;;;;;;;10.32;85.77;100440.78;3594027;39;20408;-69
2023/04/23 01:59:01;;;;;;;29.27;24.05;;;;;;;10.30;85.83;100437.31;3594126;39;20404;-68
2023/04/23 02:01:44;;;;;;;27.58;24.58;;;;;;;9.66;85.61;100335.03;3594505;39;20051;-69
2023/04/23 02:04:14;;;;;;;28.70;24.48;;;;;;;10.29;85.79;100434.75;3593603;39;20075;-68
2023/04/23 02:06:42;;;;;;;28.30;22.95;;;;;;;10.29;85.57;100438.28;3596061;39;20059;-69
2023/04/23 02:09:08;;;;;;;26.30;23.48;;;;;;;10.29;84.86;100440.97;3595938;39;20055;-68
2023/04/23 02:11:34;;;;;;;26.90;23.25;;;;;;;10.29;85.48;100432.91;3598970;39;20052;-68
2023/04/23 02:14:01;;;;;;;28.15;23.25;;;;;;;10.28;84.57;100433.03;3596419;39;20056;-69
2023/04/23 02:16:27;;;;;;;28.50;23.13;;;;;;;10.27;85.61;100434.84;3592059;39;20083;-68
2023/04/23 02:18:54;;;;;;;26.58;21.85;;;;;;;10.28;84.93;100423.16;3591598;39;20047;-69
2023/04/23 02:21:23;;;;;;;25.73;22.75;;;;;;;9.57;84.40;100308.78;3593212;39;20299;-68
2023/04/23 02:23:48;;;;;;;25.20;21.77;;;;;;;10.28;84.78;100424.97;3593878;39;20052;-69
2023/04/23 02:26:14;;;;;;;26.88;22.38;;;;;;;10.28;85.10;100414.22;3593396;39;20063;-68
2023/04/23 02:28:40;;;;;;;24.85;22.15;;;;;;;10.32;85.03;100427.34;3594436;39;20051;-69
2023/04/23 02:31:06;;;;;;;25.63;22.52;;;;;;;10.31;84.48;100427.47;3595120;39;20062;-68
2023/04/23 02:33:31;;;;;;;24.42;21.67;;;;;;;10.31;84.69;100428.31;3593247;39;20059;-68
2023/04/23 02:35:57;;;;;;;26.13;21.77;;;;;;;10.33;84.21;100429.06;3595359;39;20060;-68
2023/04/23 02:38:23;;;;;;;23.80;21.20;;;;;;;10.32;84.41;100430.03;3594615;39;20075;-68
2023/04/23 02:40:48;;;;;;;24.48;21.23;;;;;;;10.32;84.53;100423.78;3586196;39;20156;-69
2023/04/23 02:43:14;;;;;;;25.50;21.65;;;;;;;10.30;84.85;100421.19;3594132;39;20052;-67
2023/04/23 02:45:39;;;;;;;23.45;20.38;;;;;;;10.25;84.34;100417.94;3592776;39;20059;-69
2023/04/23 02:48:05;;;;;;;24.40;20.73;;;;;;;10.27;84.44;100428.59;3591108;39;20066;-69
2023/04/23 02:50:31;;;;;;;23.60;21.02;;;;;;;10.26;84.61;100419.69;3592937;39;20064;-69
2023/04/23 02:52:56;;;;;;;24.55;21.10;;;;;;;10.28;84.57;100411.53;3594636;39;20048;-69
2023/04/23 02:55:24;;;;;;;23.92;20.70;;;;;;;9.72;84.76;100321.19;3591007;39;20417;-68
2023/04/23 02:57:50;;;;;;;22.83;19.80;;;;;;;10.31;85.31;100412.19;3586079;39;20117;-68
2023/04/23 03:00:18;;;;;;;25.08;21.42;;;;;;;10.35;85.34;100413.69;3587592;39;20040;-68
2023/04/23 03:02:44;;;;;;;23.73;21.23;;;;;;;10.39;85.20;100419.72;3593732;39;20291;-69
2023/04/23 03:05:11;;;;;;;23.88;21.10;;;;;;;10.43;84.66;100413.16;3593504;39;20066;-68
2023/04/23 03:07:37;;;;;;;22.48;20.08;;;;;;;10.47;85.08;100405.78;3593231;39;20051;-68
2023/04/23 03:10:03;;;;;;;23.00;20.55;;;;;;;10.50;84.65;100411.81;3592779;39;20321;-68
2023/04/23 03:12:28;;;;;;;21.77;19.40;;;;;;;10.51;84.25;100409.97;3594549;39;20056;-68
2023/04/23 03:14:54;;;;;;;24.40;21.23;;;;;;;9.99;84.23;100325.72;3596694;39;20417;-69
2023/04/23 03:17:19;;;;;;;22.08;19.75;;;;;;;10.51;84.14;100408.16;3595040;39;20071;-69
2023/04/23 03:19:45;;;;;;;22.05;19.45;;;;;;;10.52;84.40;100395.56;3593038;39;20053;-68
2023/04/23 03:22:11;;;;;;;24.08;19.58;;;;;;;10.51;84.77;100391.16;3593196;39;20055;-68
2023/04/23 03:24:36;;;;;;;22.02;19.75;;;;;;;9.82;84.48;100274.97;3594101;39;20078;-68
2023/04/23 03:27:02;;;;;;;22.75;19.33;;;;;;;10.50;84.22;100392.13;3593157;39;20066;-68
2023/04/23 03:29:27;;;;;;;22.23;19.83;;;;;;;10.53;84.83;100389.22;3589198;39;20055;-69
2023/04/23 03:31:53;;;;;;;21.52;19.30;;;;;;;10.52;84.80;100399.09;3593861;39;20060;-68
2023/04/23 03:34:19;;;;;;;22.85;19.77;;;;;;;10.56;84.46;100392.56;3590675;39;20063;-68
2023/04/23 03:36:47;;;;;;;21.88;19.58;;;;;;;10.57;84.17;100393.44;3590572;39;20383;-68
2023/04/23 03:39:13;;;;;;;23.13;18.73;;;;;;;10.58;84.93;100393.31;3592799;39;20055;-68
2023/04/23 03:41:39;;;;;;;21.98;19.48;;;;;;;10.62;84.60;100393.97;3595817;39;20047;-68
2023/04/23 03:44:05;;;;;;;22.95;19.60;;;;;;;10.18;84.63;100314.53;3591551;39;21346;-68
2023/04/23 03:46:30;;;;;;;22.80;19.25;;;;;;;10.67;84.56;100394.50;3590488;39;20087;-68
2023/04/23 03:48:56;;;;;;;22.38;19.98;;;;;;;10.49;84.68;100358.16;3595196;39;20436;-69
2023/04/23 03:51:21;;;;;;;21.38;19.10;;;;;;;10.70;84.53;100397.00;3588458;39;20677;-68
2023/04/23 03:53:48;;;;;;;22.58;19.75;;;;;;;10.71;83.95;100397.84;3596733;39;20313;-68
2023/04/23 03:56:14;;;;;;;21.65;19.15;;;;;;;10.72;84.11;100394.19;3595573;39;20113;-68
2023/04/23 03:58:39;;;;;;;23.10;19.25;;;;;;;10.71;84.25;100387.94;3592282;39;20326;-68
2023/04/23 04:01:05;;;;;;;21.98;19.58;;;;;;;10.60;84.29;100390.53;3596612;39;20048;-69
2023/04/23 04:03:31;;;;;;;23.80;19.35;;;;;;;10.66;84.26;100398.19;3594056;39;20048;-68
2023/04/23 04:05:57;;;;;;;22.85;19.77;;;;;;;10.69;84.19;100400.66;3594624;39;20105;-68
2023/04/23 04:08:22;;;;;;;25.10;19.45;;;;;;;10.49;84.29;100367.06;3595674;39;20059;-68
2023/04/23 04:10:48;;;;;;;21.83;18.73;;;;;;;10.65;84.29;100399.13;3596450;39;20052;-68
2023/04/23 04:13:14;;;;;;;20.77;18.13;;;;;;;10.64;84.15;100402.78;3590328;39;20050;-68
2023/04/23 04:15:40;;;;;;;23.95;19.00;;;;;;;10.61;84.37;100397.63;3595672;39;20303;-68
2023/04/23 04:18:06;;;;;;;22.00;19.33;;;;;;;10.57;84.78;100396.13;3596371;39;20113;-68
2023/04/23 04:20:31;;;;;;;21.63;19.33;;;;;;;10.54;85.03;100407.09;3596602;39;20061;-68
2023/04/23 04:22:57;;;;;;;22.30;19.73;;;;;;;10.50;84.63;100410.91;3593736;39;20067;-68
2023/04/23 04:25:23;;;;;;;23.20;20.70;;;;;;;10.47;85.32;100403.09;3593830;39;20346;-68
2023/04/23 04:27:49;;;;;;;22.95;19.80;;;;;;;10.46;85.02;100410.28;3593709;39;20063;-68
2023/04/23 04:30:15;;;;;;;22.80;20.10;;;;;;;10.44;85.00;100402.34;3593337;39;20120;-67
2023/04/23 04:32:41;;;;;;;22.38;19.60;;;;;;;10.43;85.40;100411.38;3594449;39;20055;-68
2023/04/23 04:35:07;;;;;;;21.50;18.98;;;;;;;10.39;85.27;100398.22;3595164;39;20055;-68
2023/04/23 04:37:35;;;;;;;22.70;19.23;;;;;;;10.40;85.32;100395.44;3593167;39;20376;-68
2023/04/23 04:40:01;;;;;;;22.30;19.35;;;;;;;10.40;85.28;100395.44;3596910;39;20059;-66
2023/04/23 04:42:27;;;;;;;23.25;20.15;;;;;;;10.37;85.90;100392.97;3592781;39;20091;-66
2023/04/23 04:44:52;;;;;;;21.10;18.67;;;;;;;10.37;86.14;100395.66;3594267;39;20290;-66
2023/04/23 04:47:18;;;;;;;22.92;20.38;;;;;;;9.71;85.79;100289.13;3591407;39;20420;-66
2023/04/23 04:49:44;;;;;;;21.77;19.30;;;;;;;10.33;86.15;100410.25;3594039;39;20068;-66
2023/04/23 04:52:10;;;;;;;35.33;20.83;;;;;;;10.30;85.64;100399.69;3593913;39;20058;-69
2023/04/23 04:54:35;;;;;;;24.05;18.60;;;;;;;9.63;85.69;100286.06;3594051;39;20402;-68
2023/04/23 04:57:01;;;;;;;24.15;19.33;;;;;;;10.22;85.90;100391.28;3595364;39;20355;-67
2023/04/23 04:59:27;;;;;;;23.00;19.60;;;;;;;10.27;86.73;100407.13;3595108;39;20054;-67
2023/04/23 05:01:53;;;;;;;21.33;18.52;;;;;;;10.29;85.88;100407.88;3595355;39;20063;-67
2023/04/23 05:04:19;;;;;;;22.58;19.08;;;;;;;10.19;85.76;100391.50;3592155;39;20462;-68
2023/04/23 05:06:45;;;;;;;22.67;18.98;;;;;;;10.34;86.04;100414.69;3594616;39;20047;-67
2023/04/23 05:09:10;;;;;;;22.48;18.45;;;;;;;9.75;86.01;100304.03;3594154;39;20051;-68
2023/04/23 05:11:36;;;;;;;22.38;18.83;;;;;;;10.41;85.75;100407.91;3584806;39;20050;-67
2023/04/23 05:14:03;;;;;;;23.30;19.20;;;;;;;10.45;86.49;100404.03;3597014;39;20060;-67
2023/04/23 05:16:29;;;;;;;21.83;19.05;;;;;;;10.44;86.68;100390.72;3588262;39;20118;-67
2023/04/23 05:18:55;;;;;;;21.85;19.45;;;;;;;10.56;86.77;100405.13;3593990;39;20361;-68
2023/04/23 05:21:21;;;;;;;23.00;19.75;;;;;;;10.63;85.96;100411.81;3593217;39;20070;-67
2023/04/23 05:23:47;;;;;;;22.80;20.02;;;;;;;10.69;86.81;100406.03;3595579;39;20066;-67
2023/04/23 05:26:13;;;;;;;21.38;19.08;;;;;;;10.75;86.36;100410.09;3585271;39;20078;-67
2023/04/23 05:28:38;;;;;;;22.75;19.27;;;;;;;10.78;86.03;100413.44;3586622;39;20071;-67
2023/04/23 05:31:04;;;;;;;21.13;18.40;;;;;;;10.82;85.48;100409.59;3595127;39;20055;-67
2023/04/23 05:33:30;;;;;;;22.15;19.60;;;;;;;10.81;85.48;100404.31;3592838;39;20442;-67
2023/04/23 05:35:56;;;;;;;21.30;18.90;;;;;;;10.25;85.63;100304.28;3595983;39;20059;-67
2023/04/23 05:38:22;;;;;;;20.55;18.42;;;;;;;10.93;85.42;100409.69;3595448;39;20434;-67
2023/04/23 05:40:48;;;;;;;20.05;17.90;;;;;;;11.02;84.87;100413.56;3595555;39;20052;-67
2023/04/23 05:43:13;;;;;;;19.30;17.25;;;;;;;11.05;85.12;100417.88;3593924;39;20086;-67
2023/04/23 05:45:39;;;;;;;18.73;16.70;;;;;;;11.04;84.94;100405.41;3594815;39;20052;-68
2023/04/23 05:48:05;;;;;;;18.95;16.58;;;;;;;10.42;84.26;100296.78;3595604;39;20056;-67
2023/04/23 05:50:30;;;;;;;19.23;16.48;;;;;;;11.13;84.59;100396.66;3594011;39;20070;-67
2023/04/23 05:52:56;;;;;;;19.90;17.50;;;;;;;11.19;83.74;100408.81;3589616;39;20055;-67
2023/04/23 05:55:22;;;;;;;19.63;16.98;;;;;;;11.19;83.61;100409.66;3596266;39;20066;-67
2023/04/23 05:57:48;;;;;;;19.83;16.33;;;;;;;11.20;83.97;100406.03;3596272;39;20071;-67
2023/04/23 06:00:15;;;;;;;17.92;15.00;;;;;;;11.14;83.78;100395.69;3587257;39;20067;-68
2023/04/23 06:02:44;;;;;;;17.48;15.07;;;;;;;11.23;84.11;100411.19;3591958;39;20120;-67
2023/04/23 06:05:10;;;;;;;17.67;15.75;;;;;;;11.26;83.89;100400.22;3594254;39;20056;-69
2023/04/23 06:07:35;;;;;;;19.67;15.35;;;;;;;11.37;83.58;100402.97;3593866;39;20066;-69
2023/04/23 06:10:04;;;;;;;15.68;13.88;;;;;;;11.44;83.07;100399.84;3593043;39;20056;-68
2023/04/23 06:12:30;;;;;;;18.17;14.73;;;;;;;10.88;83.15;100293.53;3589555;39;20055;-68
2023/04/23 06:14:56;;;;;;;16.92;14.15;;;;;;;11.54;82.70;100393.66;3592469;39;20121;-67
2023/04/23 06:17:22;;;;;;;18.10;14.50;;;;;;;11.68;82.09;100402.59;3595661;39;20052;-68
2023/04/23 06:19:47;;;;;;;17.85;15.18;;;;;;;11.39;82.10;100336.47;3594837;39;20071;-68
2023/04/23 06:22:13;;;;;;;16.58;14.60;;;;;;;11.81;81.85;100384.56;3593954;39;20382;-68
2023/04/23 06:24:39;;;;;;;15.73;13.80;;;;;;;11.93;80.50;100388.22;3593096;39;20055;-68
2023/04/23 06:27:04;;;;;;;19.92;13.73;;;;;;;12.00;81.30;100378.69;3595743;39;20406;-68
2023/04/23 06:29:30;;;;;;;14.50;13.00;;;;;;;12.15;80.53;100376.69;3592720;39;20056;-68
2023/04/23 06:32:01;;;;;;;17.75;13.93;;;;;;;12.27;80.49;100365.84;3589365;39;20096;-68
2023/04/23 06:34:27;;;;;;;13.60;12.20;;;;;;;12.40;79.21;100370.25;3591448;39;20120;-68
2023/04/23 06:36:53;;;;;;;16.60;12.43;;;;;;;12.56;79.27;100370.81;3595678;39;20047;-68
2023/04/23 06:39:18;;;;;;;13.82;12.10;;;;;;;12.70;78.31;100367.91;3594584;39;20073;-69
2023/04/23 06:41:44;;;;;;;14.20;11.93;;;;;;;12.94;77.88;100372.31;3586456;39;20067;-68
2023/04/23 06:44:10;;;;;;;11.88;10.23;;;;;;;12.26;75.85;100226.66;3595694;39;20058;-68
2023/04/23 06:46:35;;;;;;;12.27;10.40;;;;;;;13.37;75.45;100383.28;3591297;39;20294;-69
2023/04/23 06:49:01;;;;;;;10.70;9.52;;;;;;;13.02;74.39;100284.41;3596251;39;20375;-69
2023/04/23 06:51:27;;;;;;;11.05;9.20;;;;;;;13.77;73.94;100374.66;3596202;39;20062;-68
2023/04/23 06:53:53;;;;;;;10.60;9.38;;;;;;;13.97;74.33;100364.88;3594324;39;20416;-69
2023/04/23 06:56:20;;;;;;;12.45;8.80;;;;;;;14.17;72.13;100374.88;3595291;39;21999;-69
2023/04/23 06:58:46;;;;;;;12.82;8.23;;;;;;;14.36;71.27;100370.63;3592554;39;20380;-68
2023/04/23 07:01:12;;;;;;;11.13;8.13;;;;;;;14.49;70.12;100371.28;3594089;39;20047;-68
2023/04/23 07:03:38;;;;;;;11.27;8.63;;;;;;;14.63;69.28;100372.84;3598048;39;20047;-68
2023/04/23 07:06:04;;;;;;;11.30;7.82;;;;;;;14.78;69.93;100368.81;3592458;39;20090;-68
2023/04/23 07:08:29;;;;;;;12.13;6.75;;;;;;;14.90;68.21;100368.75;3598915;39;20043;-69
2023/04/23 07:10:55;;;;;;;10.65;7.13;;;;;;;14.96;68.23;100366.34;3599685;39;20060;-68
2023/04/23 07:13:21;;;;;;;8.27;6.43;;;;;;;15.05;68.65;100364.69;3595273;39;20062;-69
2023/04/23 07:15:47;;;;;;;8.68;6.45;;;;;;;14.75;68.74;100295.19;3595738;39;20075;-68
2023/04/23 07:18:13;;;;;;;17.63;11.60;;;;;;;15.32;66.77;100374.94;3600856;39;20051;-69
2023/04/23 07:20:39;;;;;;;8.60;5.90;;;;;;;15.43;66.53;100366.69;3596264;39;20058;-68
2023/04/23 07:23:05;;;;;;;10.80;6.03;;;;;;;15.59;66.52;100373.44;3600948;39;20055;-67
2023/04/23 07:25:31;;;;;;;9.38;5.57;;;;;;;15.74;65.77;100364.81;3598689;39;20059;-67
2023/04/23 07:27:57;;;;;;;9.10;5.70;;;;;;;15.93;66.60;100358.56;3599020;39;20121;-67
2023/04/23 07:30:26;;;;;;;10.55;5.40;;;;;;;15.74;64.76;100286.22;3598466;39;20306;-66
2023/04/23 07:32:52;;;;;;;10.82;5.50;;;;;;;16.32;63.36;100364.00;3599003;39;20043;-69
2023/04/23 07:35:18;;;;;;;8.68;4.78;;;;;;;16.46;62.44;100358.16;3596338;39;20368;-68
2023/04/23 07:37:44;;;;;;;7.28;5.18;;;;;;;16.61;63.65;100346.84;3595305;39;20052;-67
2023/04/23 07:40:10;;;;;;;8.25;4.40;;;;;;;16.75;60.91;100351.88;3597826;39;20063;-67
2023/04/23 07:42:35;;;;;;;6.95;4.47;;;;;;;16.78;60.00;100357.00;3594597;39;20107;-67
2023/04/23 07:45:01;;;;;;;8.13;4.03;;;;;;;16.80;60.61;100368.53;3599186;39;20058;-67
2023/04/23 07:47:26;;;;;;;10.75;4.55;;;;;;;16.80;60.24;100351.41;3598040;39;20401;-67
2023/04/23 07:49:53;;;;;;;10.57;4.50;;;;;;;16.94;61.37;100354.53;3592972;39;20442;-67
2023/04/23 07:52:18;;;;;;;8.13;4.22;;;;;;;16.94;60.17;100348.25;3597472;39;20298;-67
2023/04/23 07:54:45;;;;;;;8.77;3.65;;;;;;;16.92;60.10;100355.66;3595721;39;20063;-69
2023/04/23 07:57:11;;;;;;;7.78;4.07;;;;;;;17.02;59.31;100350.19;3594994;39;20048;-67
2023/04/23 07:59:38;;;;;;;9.68;3.85;;;;;;;17.09;59.15;100354.03;3595764;39;20408;-67
2023/04/23 08:02:04;;;;;;;8.40;3.88;;;;;;;16.76;59.47;100274.84;3597026;39;20044;-67
2023/04/23 08:04:30;;;;;;;7.72;3.50;;;;;;;17.30;58.33;100348.38;3595021;39;20052;-67
2023/04/23 08:06:55;;;;;;;8.30;3.45;;;;;;;17.48;58.81;100345.72;3594868;39;20293;-66
2023/04/23 08:09:21;;;;;;;7.80;3.53;;;;;;;17.60;58.48;100331.78;3597964;39;20043;-67
2023/04/23 08:11:47;;;;;;;9.30;3.20;;;;;;;17.65;56.97;100344.91;3594850;39;20075;-67
2023/04/23 08:14:13;;;;;;;5.43;3.25;;;;;;;17.30;57.91;100239.72;3593115;39;20169;-68
2023/04/23 08:16:39;;;;;;;7.40;3.55;;;;;;;17.91;56.58;100326.00;3590362;39;20047;-67
2023/04/23 08:19:05;;;;;;;8.75;3.60;;;;;;;18.06;56.72;100329.06;3593035;39;20340;-67
2023/04/23 08:21:32;;;;;;;5.18;2.70;;;;;;;18.22;57.25;100329.19;3595772;39;20078;-67
2023/04/23 08:23:58;;;;;;;7.40;2.83;;;;;;;18.28;54.62;100328.56;3592223;39;20048;-67
2023/04/23 08:26:23;;;;;;;7.97;3.28;;;;;;;18.26;55.58;100322.41;3588284;39;20054;-68
2023/04/23 08:28:49;;;;;;;9.63;3.55;;;;;;;18.38;55.38;100311.31;3597198;39;20054;-68
2023/04/23 08:31:16;;;;;;;7.53;2.80;;;;;;;18.55;54.04;100330.34;3597374;39;20055;-67
2023/04/23 08:33:41;;;;;;;6.85;3.03;;;;;;;18.64;53.99;100324.94;3595062;39;20083;-68
2023/04/23 08:36:08;;;;;;;5.65;2.92;;;;;;;18.11;53.78;100212.47;3593872;39;20059;-68
2023/04/23 08:38:33;;;;;;;8.05;2.65;;;;;;;18.65;53.21;100292.13;3595388;39;20047;-67
2023/04/23 08:41:05;;;;;;;8.63;2.88;;;;;;;18.94;52.51;100324.50;3598862;39;20051;-68
2023/04/23 08:43:43;;;;;;;7.32;2.53;;;;;;;19.09;52.44;100326.59;3593762;39;20052;-68
2023/04/23 08:46:15;;;;;;;7.97;2.60;;;;;;;18.97;50.23;100277.84;3597976;39;20058;-68
2023/04/23 08:48:43;;;;;;;7.03;2.38;;;;;;;19.27;51.28;100312.91;3595581;39;20306;-68
2023/04/23 08:51:16;;;;;;;10.40;3.92;;;;;;;19.23;50.59;100310.50;3598927;39;20116;-67
2023/04/23 08:53:48;;;;;;;8.43;2.17;;;;;;;19.19;49.98;100314.56;3597036;39;20160;-68
2023/04/23 08:56:14;;;;;;;4.05;2.20;;;;;;;18.60;50.49;100201.88;3598757;39;20413;-68
2023/04/23 08:58:41;;;;;;;6.68;2.45;;;;;;;19.34;50.57;100325.69;3599329;39;20058;-67
2023/04/23 09:01:08;;;;;;;8.50;2.28;;;;;;;19.35;49.46;100326.56;3593866;39;20053;-67
2023/04/23 09:03:35;;;;;;;6.35;1.95;;;;;;;18.53;49.21;100215.31;3597515;39;20048;-68
2023/04/23 09:06:01;;;;;;;7.18;2.60;;;;;;;18.59;49.05;100216.53;3598432;39;20405;-67
2023/04/23 09:08:29;;;;;;;5.60;2.20;;;;;;;19.23;49.41;100318.66;3599037;39;20307;-68
2023/04/23 09:11:00;;;;;;;6.82;2.10;;;;;;;19.24;49.48;100323.09;3586992;39;20140;-68
2023/04/23 09:13:28;;;;;;;7.32;2.50;;;;;;;19.10;49.47;100295.63;3598178;39;20395;-67
2023/04/23 09:15:54;;;;;;;7.78;2.10;;;;;;;19.40;48.32;100324.19;3597052;39;20055;-68
2023/04/23 09:18:20;;;;;;;6.82;2.17;;;;;;;19.46;47.46;100324.38;3602680;39;20054;-67
2023/04/23 09:20:46;;;;;;;6.43;1.85;;;;;;;19.37;47.16;100297.25;3599994;39;20071;-67
2023/04/23 09:23:15;;;;;;;5.55;1.92;;;;;;;19.67;46.76;100296.72;3603981;39;20053;-68
2023/04/23 09:25:41;;;;;;;4.90;1.65;;;;;;;19.79;46.25;100312.75;3599927;39;20047;-67
2023/04/23 09:28:09;;;;;;;4.93;1.73;;;;;;;20.04;45.49;100309.03;3602072;39;20062;-68
2023/04/23 09:30:47;;;;;;;5.05;1.67;;;;;;;20.03;45.90;100296.41;3599752;39;20051;-67
2023/04/23 09:33:16;;;;;;;5.57;2.08;;;;;;;20.14;44.83;100282.47;3599533;39;20410;-68
2023/04/23 09:35:42;;;;;;;5.88;1.77;;;;;;;20.53;44.77;100294.59;3598877;39;20059;-68
2023/04/23 09:38:09;;;;;;;6.25;2.35;;;;;;;20.81;44.60;100295.91;3602307;39;20059;-67
2023/04/23 09:40:36;;;;;;;2.70;1.55;;;;;;;21.11;44.12;100298.88;3598556;39;20097;-67
2023/04/23 09:43:04;;;;;;;5.75;1.90;;;;;;;20.70;43.12;100199.81;3596404;39;20337;-68
2023/04/23 09:45:31;;;;;;;5.63;1.73;;;;;;;20.60;42.10;100170.81;3596542;39;20063;-67
2023/04/23 09:47:58;;;;;;;5.82;1.65;;;;;;;21.14;41.85;100273.06;3596964;39;20089;-68
2023/04/23 09:50:36;;;;;;;4.88;1.90;;;;;;;20.96;42.49;100290.53;3598347;39;20039;-68
2023/04/23 09:53:03;;;;;;;5.57;2.33;;;;;;;20.85;43.41;100289.03;3597893;39;20278;-68
2023/04/23 09:55:37;;;;;;;10.63;2.63;;;;;;;20.58;42.90;100293.03;3598784;39;20069;-68
2023/04/23 09:58:13;;;;;;;5.72;1.95;;;;;;;20.26;43.77;100285.69;3597473;39;20048;-69
2023/04/23 10:00:40;;;;;;;4.95;1.70;;;;;;;20.06;44.79;100282.44;3599875;39;20077;-67
2023/04/23 10:03:08;;;;;;;5.03;1.83;;;;;;;19.82;44.23;100285.13;3599421;39;20070;-68
2023/04/23 10:05:43;;;;;;;6.40;1.70;;;;;;;19.72;46.00;100277.09;3596762;39;20064;-68
2023/04/23 10:08:09;;;;;;;5.38;1.88;;;;;;;19.18;46.27;100170.31;3597758;39;20394;-68
2023/04/23 10:10:35;;;;;;;5.00;1.67;;;;;;;19.79;47.14;100272.72;3596722;39;20078;-68
2023/04/23 10:13:01;;;;;;;4.40;1.88;;;;;;;19.77;45.99;100274.75;3599554;39;20050;-68
2023/04/23 10:15:27;;;;;;;6.57;1.67;;;;;;;19.79;46.45;100269.09;3596606;39;20052;-67
2023/04/23 10:17:54;;;;;;;4.80;1.48;;;;;;;19.89;45.90;100269.81;3598341;39;20058;-68
2023/04/23 10:20:22;;;;;;;3.85;1.48;;;;;;;19.91;45.65;100275.94;3599234;39;20382;-68
2023/04/23 10:22:48;;;;;;;5.55;1.75;;;;;;;19.41;44.96;100175.97;3598557;39;20400;-68
2023/04/23 10:25:15;;;;;;;4.03;1.95;;;;;;;19.90;45.07;100260.59;3593803;39;20051;-67
2023/04/23 10:27:45;;;;;;;4.70;1.92;;;;;;;19.88;44.88;100262.63;3598602;39;20043;-67
2023/04/23 10:30:13;;;;;;;6.10;2.05;;;;;;;19.75;45.57;100262.28;3598023;39;20406;-67
2023/04/23 10:32:39;;;;;;;3.78;1.65;;;;;;;19.64;45.82;100267.06;3587655;39;20363;-67
2023/04/23 10:35:08;;;;;;;5.70;1.75;;;;;;;18.92;46.07;100154.91;3596489;39;20055;-68
2023/04/23 10:37:36;;;;;;;5.35;1.77;;;;;;;19.48;47.09;100262.38;3595930;39;20091;-68
2023/04/23 10:40:13;;;;;;;5.20;1.92;;;;;;;19.41;46.64;100261.34;3596223;39;20103;-67
2023/04/23 10:42:42;;;;;;;4.90;1.92;;;;;;;19.33;47.42;100253.13;3595788;39;20051;-67
2023/04/23 10:45:20;;;;;;;4.18;1.70;;;;;;;19.21;47.32;100258.03;3598046;39;20132;-69
2023/04/23 10:47:46;;;;;;;3.55;1.60;;;;;;;18.91;48.34;100204.13;3594659;39;20067;-69
2023/04/23 10:50:38;;;;;;;3.85;1.85;;;;;;;19.24;48.56;100233.16;3597484;39;20051;-66
2023/04/23 10:53:16;;;;;;;2.83;1.40;;;;;;;19.36;48.03;100241.06;3596265;39;20091;-67
2023/04/23 10:55:42;;;;;;;3.08;1.35;;;;;;;19.53;47.51;100231.88;3594993;39;20064;-67
2023/04/23 10:58:07;;;;;;;4.05;1.52;;;;;;;19.14;47.21;100111.72;3597271;39;20424;-67
2023/04/23 11:00:44;;;;;;;4.05;1.60;;;;;;;19.98;47.25;100213.38;3593817;39;20072;-68
2023/04/23 11:03:38;;;;;;;4.82;1.70;;;;;;;19.99;46.09;100226.00;3595379;39;20409;-68
2023/04/23 11:06:06;;;;;;;3.28;1.60;;;;;;;19.76;46.09;100210.31;3594113;39;20082;-68
2023/04/23 11:08:35;;;;;;;5.60;1.50;;;;;;;19.79;46.58;100217.28;3592701;39;20055;-68
2023/04/23 11:11:06;;;;;;;5.07;1.70;;;;;;;19.71;47.32;100216.25;3593288;39;20379;-68
2023/04/23 11:13:31;;;;;;;3.83;1.30;;;;;;;19.60;48.11;100208.41;3597845;39;20067;-68